sensor_id;sensor_type;location;lat;lon;timestamp;pressure;altitude;pressure_sealevel;temperature;humidity
51099;BME280;37146;48.210;16.234;2022-09-27T00:01:55;97495.28;;;9.87;100.00
51099;BME280;37146;48.210;16.234;2022-09-27T00:04:20;97490.16;;;9.84;100.00
51099;BME280;37146;48.210;16.234;2022-09-27T00:06:45;97491.91;;;9.72;100.00
51099;BME280;37146;48.210;16.234;2022-09-27T00:09:11;97485.06;;;9.68;100.00
51099;BME280;37146;48.210;16.234;2022-09-27T00:11:38;97481.03;;;9.62;100.00
51099;BME280;37146;48.210;16.234;2022-09-27T00:14:05;97478.81;;;9.56;100.00
51099;BME280;37146;48.210;16.234;2022-09-27T00:16:34;97472.09;;;9.50;100.00
51099;BME280;37146;48.210;16.234;2022-09-27T00:19:02;97473.69;;;9.53;100.00
51099;BME280;37146;48.210;16.234;2022-09-27T00:21:28;97467.28;;;9.55;100.00
51099;BME280;37146;48.210;16.234;2022-09-27T00:23:55;97464.59;;;9.55;100.00
51099;BME280;37146;48.210;16.234;2022-09-27T00:26:21;97454.78;;;9.56;100.00
51099;BME280;37146;48.210;16.234;2022-09-27T00:28:46;97452.13;;;9.56;100.00
51099;BME280;37146;48.210;16.234;2022-09-27T00:31:25;97462.81;;;9.56;100.00
51099;BME280;37146;48.210;16.234;2022-09-27T00:33:53;97450.28;;;9.56;100.00
51099;BME280;37146;48.210;16.234;2022-09-27T00:36:20;97440.81;;;9.52;100.00
51099;BME280;37146;48.210;16.234;2022-09-27T00:38:46;97436.03;;;9.44;100.00
51099;BME280;37146;48.210;16.234;2022-09-27T00:41:14;97421.22;;;9.40;100.00
51099;BME280;37146;48.210;16.234;2022-09-27T00:43:57;97422.28;;;9.38;100.00
51099;BME280;37146;48.210;16.234;2022-09-27T00:46:27;97421.31;;;9.39;100.00
51099;BME280;37146;48.210;16.234;2022-09-27T00:49:15;97423.38;;;9.35;100.00
51099;BME280;37146;48.210;16.234;2022-09-27T00:51:44;97417.44;;;9.43;100.00
51099;BME280;37146;48.210;16.234;2022-09-27T00:54:14;97416.81;;;9.39;100.00
51099;BME280;37146;48.210;16.234;2022-09-27T00:56:42;97411.75;;;9.36;100.00
51099;BME280;37146;48.210;16.234;2022-09-27T00:59:19;97400.75;;;9.28;100.00
51099;BME280;37146;48.210;16.234;2022-09-27T01:01:49;97403.53;;;9.26;100.00
51099;BME280;37146;48.210;16.234;2022-09-27T01:04:23;97406.81;;;9.30;100.00
51099;BME280;37146;48.210;16.234;2022-09-27T01:06:50;97397.03;;;9.31;100.00
51099;BME280;37146;48.210;16.234;2022-09-27T01:09:16;97395.41;;;9.28;100.00
51099;BME280;37146;48.210;16.234;2022-09-27T01:11:45;97397.03;;;9.18;100.00
51099;BME280;37146;48.210;16.234;2022-09-27T01:22:23;97386.38;;;9.18;100.00
51099;BME280;37146;48.210;16.234;2022-09-27T01:30:15;97365.91;;;9.18;100.00
51099;BME280;37146;48.210;16.234;2022-09-27T01:43:47;97369.97;;;9.11;100.00
51099;BME280;37146;48.210;16.234;2022-09-27T01:46:22;97367.41;;;9.09;100.00
51099;BME280;37146;48.210;16.234;2022-09-27T01:48:50;97364.78;;;8.96;100.00
51099;BME280;37146;48.210;16.234;2022-09-27T01:51:20;97360.16;;;8.98;100.00
51099;BME280;37146;48.210;16.234;2022-09-27T01:53:51;97357.84;;;8.94;100.00
51099;BME280;37146;48.210;16.234;2022-09-27T01:56:23;97359.78;;;8.92;100.00
51099;BME280;37146;48.210;16.234;2022-09-27T01:59:03;97366.59;;;8.96;100.00
51099;BME280;37146;48.210;16.234;2022-09-27T02:01:33;97357.41;;;9.00;100.00
51099;BME280;37146;48.210;16.234;2022-09-27T02:04:01;97351.22;;;9.00;100.00
51099;BME280;37146;48.210;16.234;2022-09-27T02:06:33;97356.88;;;8.95;100.00
51099;BME280;37146;48.210;16.234;2022-09-27T02:09:08;97350.16;;;9.02;100.00
51099;BME280;37146;48.210;16.234;2022-09-27T02:11:37;97360.75;;;8.91;100.00
51099;BME280;37146;48.210;16.234;2022-09-27T02:14:14;97348.38;;;8.90;100.00
51099;BME280;37146;48.210;16.234;2022-09-27T02:19:49;97364.28;;;8.78;100.00
51099;BME280;37146;48.210;16.234;2022-09-27T02:22:29;97353.06;;;8.73;100.00
51099;BME280;37146;48.210;16.234;2022-09-27T02:25:00;97352.31;;;8.84;100.00
51099;BME280;37146;48.210;16.234;2022-09-27T02:27:35;97350.41;;;8.86;100.00
51099;BME280;37146;48.210;16.234;2022-09-27T02:32:31;97339.91;;;8.96;100.00
51099;BME280;37146;48.210;16.234;2022-09-27T02:35:00;97329.25;;;8.96;100.00
51099;BME280;37146;48.210;16.234;2022-09-27T02:37:28;97324.88;;;8.95;100.00
51099;BME280;37146;48.210;16.234;2022-09-27T02:39:53;97321.78;;;8.88;100.00
51099;BME280;37146;48.210;16.234;2022-09-27T02:42:19;97324.91;;;8.82;100.00
51099;BME280;37146;48.210;16.234;2022-09-27T02:44:44;97321.41;;;8.81;100.00
51099;BME280;37146;48.210;16.234;2022-09-27T02:50:02;97324.38;;;8.90;100.00
51099;BME280;37146;48.210;16.234;2022-09-27T02:55:38;97315.16;;;8.94;100.00
51099;BME280;37146;48.210;16.234;2022-09-27T02:58:24;97323.41;;;8.91;100.00
51099;BME280;37146;48.210;16.234;2022-09-27T03:03:30;97315.84;;;8.85;100.00
51099;BME280;37146;48.210;16.234;2022-09-27T03:06:04;97306.88;;;8.86;100.00
51099;BME280;37146;48.210;16.234;2022-09-27T03:08:31;97310.50;;;8.85;100.00
51099;BME280;37146;48.210;16.234;2022-09-27T03:10:56;97313.59;;;8.91;100.00
51099;BME280;37146;48.210;16.234;2022-09-27T03:13:22;97317.56;;;8.86;100.00
51099;BME280;37146;48.210;16.234;2022-09-27T03:15:47;97315.22;;;8.81;100.00
51099;BME280;37146;48.210;16.234;2022-09-27T03:18:13;97314.13;;;8.84;100.00
51099;BME280;37146;48.210;16.234;2022-09-27T03:20:38;97312.97;;;8.88;100.00
51099;BME280;37146;48.210;16.234;2022-09-27T03:23:03;97315.63;;;8.88;100.00
51099;BME280;37146;48.210;16.234;2022-09-27T03:25:29;97309.56;;;8.86;100.00
51099;BME280;37146;48.210;16.234;2022-09-27T03:27:54;97304.75;;;8.91;100.00
51099;BME280;37146;48.210;16.234;2022-09-27T03:30:19;97297.94;;;8.87;100.00
51099;BME280;37146;48.210;16.234;2022-09-27T03:32:45;97296.00;;;8.89;100.00
51099;BME280;37146;48.210;16.234;2022-09-27T03:35:12;97284.72;;;8.85;100.00
51099;BME280;37146;48.210;16.234;2022-09-27T03:37:38;97282.59;;;8.77;100.00
51099;BME280;37146;48.210;16.234;2022-09-27T03:40:04;97269.06;;;8.80;100.00
51099;BME280;37146;48.210;16.234;2022-09-27T03:42:30;97269.16;;;8.79;100.00
51099;BME280;37146;48.210;16.234;2022-09-27T03:44:55;97268.31;;;8.78;100.00
51099;BME280;37146;48.210;16.234;2022-09-27T03:47:20;97273.97;;;8.74;100.00
51099;BME280;37146;48.210;16.234;2022-09-27T03:49:47;97272.59;;;8.68;100.00
51099;BME280;37146;48.210;16.234;2022-09-27T03:52:13;97265.88;;;8.75;100.00
51099;BME280;37146;48.210;16.234;2022-09-27T03:54:39;97263.19;;;8.75;100.00
51099;BME280;37146;48.210;16.234;2022-09-27T03:57:04;97263.41;;;8.72;100.00
51099;BME280;37146;48.210;16.234;2022-09-27T03:59:29;97255.41;;;8.72;100.00
51099;BME280;37146;48.210;16.234;2022-09-27T04:01:55;97256.38;;;8.71;100.00
51099;BME280;37146;48.210;16.234;2022-09-27T04:04:20;97246.56;;;8.72;100.00
51099;BME280;37146;48.210;16.234;2022-09-27T04:06:46;97240.50;;;8.70;100.00
51099;BME280;37146;48.210;16.234;2022-09-27T04:09:11;97247.41;;;8.72;100.00
51099;BME280;37146;48.210;16.234;2022-09-27T04:11:36;97240.38;;;8.71;100.00
51099;BME280;37146;48.210;16.234;2022-09-27T04:14:02;97247.41;;;8.72;100.00
51099;BME280;37146;48.210;16.234;2022-09-27T04:16:29;97255.53;;;8.71;100.00
51099;BME280;37146;48.210;16.234;2022-09-27T04:18:56;97251.28;;;8.68;100.00
51099;BME280;37146;48.210;16.234;2022-09-27T04:21:22;97246.69;;;8.70;100.00
51099;BME280;37146;48.210;16.234;2022-09-27T04:23:47;97251.69;;;8.75;100.00
51099;BME280;37146;48.210;16.234;2022-09-27T04:26:12;97239.75;;;8.80;100.00
51099;BME280;37146;48.210;16.234;2022-09-27T04:28:38;97233.94;;;8.87;100.00
51099;BME280;37146;48.210;16.234;2022-09-27T04:31:04;97231.06;;;8.90;100.00
51099;BME280;37146;48.210;16.234;2022-09-27T04:33:29;97237.84;;;8.94;100.00
51099;BME280;37146;48.210;16.234;2022-09-27T04:35:55;97235.19;;;8.94;100.00
51099;BME280;37146;48.210;16.234;2022-09-27T04:38:38;97240.50;;;8.94;100.00
51099;BME280;37146;48.210;16.234;2022-09-27T04:41:04;97236.47;;;8.88;100.00
51099;BME280;37146;48.210;16.234;2022-09-27T04:43:31;97238.19;;;8.89;100.00
51099;BME280;37146;48.210;16.234;2022-09-27T04:45:56;97231.50;;;8.84;100.00
51099;BME280;37146;48.210;16.234;2022-09-27T04:48:22;97232.75;;;8.91;100.00
51099;BME280;37146;48.210;16.234;2022-09-27T04:50:55;97234.13;;;8.96;100.00
51099;BME280;37146;48.210;16.234;2022-09-27T04:53:21;97240.09;;;9.00;100.00
51099;BME280;37146;48.210;16.234;2022-09-27T04:55:47;97237.50;;;8.98;100.00
51099;BME280;37146;48.210;16.234;2022-09-27T04:58:14;97238.94;;;8.91;100.00
51099;BME280;37146;48.210;16.234;2022-09-27T05:00:39;97235.59;;;9.01;100.00
51099;BME280;37146;48.210;16.234;2022-09-27T05:03:07;97233.03;;;8.99;100.00
51099;BME280;37146;48.210;16.234;2022-09-27T05:05:33;97234.00;;;8.98;100.00
51099;BME280;37146;48.210;16.234;2022-09-27T05:07:58;97232.69;;;9.04;100.00
51099;BME280;37146;48.210;16.234;2022-09-27T05:10:24;97236.94;;;9.06;100.00
51099;BME280;37146;48.210;16.234;2022-09-27T05:12:49;97235.75;;;9.10;100.00
51099;BME280;37146;48.210;16.234;2022-09-27T05:15:15;97238.56;;;9.09;100.00
51099;BME280;37146;48.210;16.234;2022-09-27T05:17:40;97224.34;;;9.08;100.00
51099;BME280;37146;48.210;16.234;2022-09-27T05:20:05;97230.44;;;9.10;100.00
51099;BME280;37146;48.210;16.234;2022-09-27T05:22:31;97224.63;;;9.17;100.00
51099;BME280;37146;48.210;16.234;2022-09-27T05:24:56;97223.31;;;9.22;100.00
51099;BME280;37146;48.210;16.234;2022-09-27T05:27:22;97214.75;;;9.30;100.00
51099;BME280;37146;48.210;16.234;2022-09-27T05:29:47;97210.28;;;9.31;100.00
51099;BME280;37146;48.210;16.234;2022-09-27T05:32:13;97208.66;;;9.28;100.00
51099;BME280;37146;48.210;16.234;2022-09-27T05:34:39;97210.97;;;9.33;100.00
51099;BME280;37146;48.210;16.234;2022-09-27T05:37:04;97209.41;;;9.30;100.00
51099;BME280;37146;48.210;16.234;2022-09-27T05:39:30;97201.91;;;9.35;100.00
51099;BME280;37146;48.210;16.234;2022-09-27T05:41:55;97197.81;;;9.42;100.00
51099;BME280;37146;48.210;16.234;2022-09-27T05:44:22;97203.75;;;9.46;100.00
51099;BME280;37146;48.210;16.234;2022-09-27T05:46:47;97191.28;;;9.47;100.00
51099;BME280;37146;48.210;16.234;2022-09-27T05:49:12;97194.66;;;9.49;100.00
51099;BME280;37146;48.210;16.234;2022-09-27T05:51:38;97192.00;;;9.49;100.00
51099;BME280;37146;48.210;16.234;2022-09-27T05:54:03;97193.47;;;9.53;100.00
51099;BME280;37146;48.210;16.234;2022-09-27T05:56:28;97182.56;;;9.56;100.00
51099;BME280;37146;48.210;16.234;2022-09-27T05:58:54;97193.25;;;9.56;100.00
51099;BME280;37146;48.210;16.234;2022-09-27T06:01:20;97189.59;;;9.57;100.00
51099;BME280;37146;48.210;16.234;2022-09-27T06:03:45;97196.88;;;9.55;100.00
51099;BME280;37146;48.210;16.234;2022-09-27T06:06:11;97192.72;;;9.51;100.00
51099;BME280;37146;48.210;16.234;2022-09-27T06:08:38;97185.97;;;9.58;100.00
51099;BME280;37146;48.210;16.234;2022-09-27T06:11:09;97185.72;;;9.61;100.00
51099;BME280;37146;48.210;16.234;2022-09-27T06:13:37;97193.34;;;9.66;100.00
51099;BME280;37146;48.210;16.234;2022-09-27T06:16:04;97185.47;;;9.64;100.00
51099;BME280;37146;48.210;16.234;2022-09-27T06:18:29;97185.84;;;9.71;100.00
51099;BME280;37146;48.210;16.234;2022-09-27T06:20:58;97183.66;;;9.76;100.00
51099;BME280;37146;48.210;16.234;2022-09-27T06:23:23;97187.69;;;9.82;100.00
51099;BME280;37146;48.210;16.234;2022-09-27T06:25:49;97181.66;;;9.91;100.00
51099;BME280;37146;48.210;16.234;2022-09-27T06:28:16;97183.09;;;9.95;100.00
51099;BME280;37146;48.210;16.234;2022-09-27T06:30:47;97176.19;;;10.04;100.00
51099;BME280;37146;48.210;16.234;2022-09-27T06:33:15;97176.53;;;10.11;100.00
51099;BME280;37146;48.210;16.234;2022-09-27T06:35:41;97182.84;;;10.21;100.00
51099;BME280;37146;48.210;16.234;2022-09-27T06:38:08;97179.22;;;10.22;100.00
51099;BME280;37146;48.210;16.234;2022-09-27T06:40:35;97183.94;;;10.30;100.00
51099;BME280;37146;48.210;16.234;2022-09-27T06:43:06;97183.34;;;10.38;100.00
51099;BME280;37146;48.210;16.234;2022-09-27T06:45:33;97187.22;;;10.33;100.00
51099;BME280;37146;48.210;16.234;2022-09-27T06:48:00;97190.00;;;10.32;100.00
51099;BME280;37146;48.210;16.234;2022-09-27T06:50:27;97190.38;;;10.39;100.00
51099;BME280;37146;48.210;16.234;2022-09-27T06:52:54;97192.69;;;10.43;100.00
51099;BME280;37146;48.210;16.234;2022-09-27T06:55:20;97192.22;;;10.49;100.00
51099;BME280;37146;48.210;16.234;2022-09-27T06:57:45;97186.94;;;10.59;100.00
51099;BME280;37146;48.210;16.234;2022-09-27T07:00:30;97191.56;;;10.69;100.00
51099;BME280;37146;48.210;16.234;2022-09-27T07:02:57;97189.34;;;10.74;100.00
51099;BME280;37146;48.210;16.234;2022-09-27T07:05:26;97186.22;;;10.69;100.00
51099;BME280;37146;48.210;16.234;2022-09-27T07:07:54;97191.06;;;10.75;100.00
51099;BME280;37146;48.210;16.234;2022-09-27T07:10:25;97191.06;;;10.75;100.00
51099;BME280;37146;48.210;16.234;2022-09-27T07:12:51;97194.22;;;10.80;100.00
51099;BME280;37146;48.210;16.234;2022-09-27T07:15:17;97197.34;;;10.85;100.00
51099;BME280;37146;48.210;16.234;2022-09-27T07:17:45;97197.88;;;10.79;100.00
51099;BME280;37146;48.210;16.234;2022-09-27T07:20:11;97202.50;;;10.77;100.00
51099;BME280;37146;48.210;16.234;2022-09-27T07:22:40;97201.50;;;10.78;100.00
51099;BME280;37146;48.210;16.234;2022-09-27T07:25:07;97208.94;;;10.74;100.00
51099;BME280;37146;48.210;16.234;2022-09-27T07:27:33;97205.16;;;10.77;100.00
51099;BME280;37146;48.210;16.234;2022-09-27T07:29:59;97219.13;;;10.80;100.00
51099;BME280;37146;48.210;16.234;2022-09-27T07:32:25;97218.50;;;10.88;100.00
51099;BME280;37146;48.210;16.234;2022-09-27T07:34:50;97222.16;;;10.87;100.00
51099;BME280;37146;48.210;16.234;2022-09-27T07:37:16;97219.34;;;10.89;100.00
51099;BME280;37146;48.210;16.234;2022-09-27T07:39:42;97227.25;;;10.90;100.00
51099;BME280;37146;48.210;16.234;2022-09-27T07:42:07;97227.72;;;10.95;100.00
51099;BME280;37146;48.210;16.234;2022-09-27T07:44:33;97229.28;;;10.98;100.00
51099;BME280;37146;48.210;16.234;2022-09-27T07:46:58;97232.69;;;11.00;100.00
51099;BME280;37146;48.210;16.234;2022-09-27T07:49:24;97234.53;;;11.00;100.00
51099;BME280;37146;48.210;16.234;2022-09-27T07:51:49;97241.56;;;11.01;100.00
51099;BME280;37146;48.210;16.234;2022-09-27T07:54:15;97240.84;;;10.98;100.00
51099;BME280;37146;48.210;16.234;2022-09-27T07:56:41;97239.28;;;10.96;100.00
51099;BME280;37146;48.210;16.234;2022-09-27T07:59:06;97248.16;;;10.96;100.00
51099;BME280;37146;48.210;16.234;2022-09-27T08:01:32;97251.53;;;10.98;100.00
51099;BME280;37146;48.210;16.234;2022-09-27T08:03:58;97252.75;;;10.94;100.00
51099;BME280;37146;48.210;16.234;2022-09-27T08:06:24;97250.09;;;10.94;100.00
51099;BME280;37146;48.210;16.234;2022-09-27T08:08:49;97256.31;;;10.95;100.00
51099;BME280;37146;48.210;16.234;2022-09-27T08:11:16;97259.81;;;10.95;100.00
51099;BME280;37146;48.210;16.234;2022-09-27T08:13:43;97264.44;;;10.93;100.00
51099;BME280;37146;48.210;16.234;2022-09-27T08:16:09;97270.66;;;10.94;100.00
51099;BME280;37146;48.210;16.234;2022-09-27T08:18:38;97277.34;;;10.88;100.00
51099;BME280;37146;48.210;16.234;2022-09-27T08:21:04;97279.66;;;10.93;100.00
51099;BME280;37146;48.210;16.234;2022-09-27T08:23:29;97271.75;;;10.91;100.00
51099;BME280;37146;48.210;16.234;2022-09-27T08:25:56;97283.16;;;10.93;100.00
51099;BME280;37146;48.210;16.234;2022-09-27T08:28:24;97288.41;;;10.95;100.00
51099;BME280;37146;48.210;16.234;2022-09-27T08:30:50;97291.19;;;10.93;100.00
51099;BME280;37146;48.210;16.234;2022-09-27T08:33:16;97286.56;;;10.95;100.00
51099;BME280;37146;48.210;16.234;2022-09-27T08:35:41;97288.63;;;10.92;100.00
51099;BME280;37146;48.210;16.234;2022-09-27T08:38:08;97285.84;;;10.93;100.00
51099;BME280;37146;48.210;16.234;2022-09-27T08:43:51;97292.53;;;10.88;100.00
51099;BME280;37146;48.210;16.234;2022-09-27T08:47:14;97286.94;;;10.91;100.00
51099;BME280;37146;48.210;16.234;2022-09-27T08:52:26;97284.50;;;10.88;100.00
51099;BME280;37146;48.210;16.234;2022-09-27T08:54:55;97283.66;;;10.87;100.00
51099;BME280;37146;48.210;16.234;2022-09-27T08:57:23;97270.88;;;10.91;100.00
51099;BME280;37146;48.210;16.234;2022-09-27T09:00:04;97267.09;;;11.05;100.00
51099;BME280;37146;48.210;16.234;2022-09-27T09:02:31;97266.09;;;11.06;100.00
51099;BME280;37146;48.210;16.234;2022-09-27T09:05:04;97261.50;;;11.08;100.00
51099;BME280;37146;48.210;16.234;2022-09-27T09:13:21;97264.97;;;11.20;100.00
51099;BME280;37146;48.210;16.234;2022-09-27T09:24:20;97266.63;;;11.32;100.00
51099;BME280;37146;48.210;16.234;2022-09-27T09:27:38;97272.97;;;11.31;100.00
51099;BME280;37146;48.210;16.234;2022-09-27T09:35:21;97269.66;;;11.39;100.00
51099;BME280;37146;48.210;16.234;2022-09-27T09:37:53;97270.59;;;11.49;100.00
51099;BME280;37146;48.210;16.234;2022-09-27T09:43:46;97275.84;;;11.72;100.00
51099;BME280;37146;48.210;16.234;2022-09-27T09:46:52;97277.53;;;11.73;100.00
51099;BME280;37146;48.210;16.234;2022-09-27T09:49:36;97276.63;;;11.63;100.00
51099;BME280;37146;48.210;16.234;2022-09-27T09:52:10;97269.66;;;11.71;100.00
51099;BME280;37146;48.210;16.234;2022-09-27T09:54:42;97263.25;;;11.84;100.00
51099;BME280;37146;48.210;16.234;2022-09-27T09:58:11;97255.47;;;12.02;100.00
51099;BME280;37146;48.210;16.234;2022-09-27T10:00:42;97241.22;;;12.23;100.00
51099;BME280;37146;48.210;16.234;2022-09-27T10:03:07;97248.47;;;12.32;100.00
51099;BME280;37146;48.210;16.234;2022-09-27T10:05:33;97238.22;;;12.47;100.00
51099;BME280;37146;48.210;16.234;2022-09-27T10:08:01;97237.09;;;12.49;100.00
51099;BME280;37146;48.210;16.234;2022-09-27T10:10:27;97234.06;;;12.74;100.00
51099;BME280;37146;48.210;16.234;2022-09-27T10:12:53;97234.59;;;13.08;100.00
51099;BME280;37146;48.210;16.234;2022-09-27T10:15:22;97238.59;;;13.63;100.00
51099;BME280;37146;48.210;16.234;2022-09-27T10:17:50;97238.13;;;13.97;100.00
51099;BME280;37146;48.210;16.234;2022-09-27T10:20:38;97245.19;;;13.98;100.00
51099;BME280;37146;48.210;16.234;2022-09-27T10:23:12;97240.13;;;13.75;100.00
51099;BME280;37146;48.210;16.234;2022-09-27T10:25:51;97239.97;;;13.77;100.00
51099;BME280;37146;48.210;16.234;2022-09-27T10:28:38;97238.16;;;13.78;100.00
51099;BME280;37146;48.210;16.234;2022-09-27T10:31:09;97242.97;;;13.54;100.00
51099;BME280;37146;48.210;16.234;2022-09-27T10:36:42;97238.75;;;13.52;100.00
51099;BME280;37146;48.210;16.234;2022-09-27T10:39:21;97244.34;;;13.29;100.00
51099;BME280;37146;48.210;16.234;2022-09-27T10:41:47;97235.59;;;13.86;100.00
51099;BME280;37146;48.210;16.234;2022-09-27T10:46:49;97236.53;;;14.52;100.00
51099;BME280;37146;48.210;16.234;2022-09-27T10:51:58;97245.38;;;14.34;100.00
51099;BME280;37146;48.210;16.234;2022-09-27T10:54:28;97250.13;;;14.50;100.00
51099;BME280;37146;48.210;16.234;2022-09-27T10:59:21;97238.84;;;13.89;100.00
51099;BME280;37146;48.210;16.234;2022-09-27T11:01:48;97237.31;;;13.77;100.00
51099;BME280;37146;48.210;16.234;2022-09-27T11:04:22;97239.16;;;13.67;100.00
51099;BME280;37146;48.210;16.234;2022-09-27T11:06:47;97238.88;;;13.70;100.00
51099;BME280;37146;48.210;16.234;2022-09-27T11:09:19;97235.91;;;13.63;100.00
51099;BME280;37146;48.210;16.234;2022-09-27T11:11:48;97229.09;;;13.59;100.00
51099;BME280;37146;48.210;16.234;2022-09-27T11:14:22;97232.66;;;13.40;100.00
51099;BME280;37146;48.210;16.234;2022-09-27T11:17:07;97228.94;;;13.31;100.00
51099;BME280;37146;48.210;16.234;2022-09-27T11:20:01;97223.44;;;13.23;100.00
51099;BME280;37146;48.210;16.234;2022-09-27T11:26:03;97218.03;;;13.03;100.00
51099;BME280;37146;48.210;16.234;2022-09-27T11:31:41;97212.38;;;12.96;100.00
51099;BME280;37146;48.210;16.234;2022-09-27T11:34:19;97215.88;;;12.87;100.00
51099;BME280;37146;48.210;16.234;2022-09-27T11:53:27;97232.00;;;12.46;100.00
51099;BME280;37146;48.210;16.234;2022-09-27T12:04:06;97215.31;;;12.83;100.00
51099;BME280;37146;48.210;16.234;2022-09-27T12:06:41;97219.84;;;12.93;100.00
51099;BME280;37146;48.210;16.234;2022-09-27T12:09:14;97221.69;;;12.92;100.00
51099;BME280;37146;48.210;16.234;2022-09-27T12:11:49;97221.81;;;12.91;100.00
51099;BME280;37146;48.210;16.234;2022-09-27T12:14:26;97219.75;;;12.94;100.00
51099;BME280;37146;48.210;16.234;2022-09-27T12:16:55;97221.44;;;13.05;100.00
51099;BME280;37146;48.210;16.234;2022-09-27T12:19:30;97221.16;;;13.08;100.00
51099;BME280;37146;48.210;16.234;2022-09-27T12:22:02;97222.00;;;13.09;100.00
51099;BME280;37146;48.210;16.234;2022-09-27T12:24:29;97225.53;;;13.09;100.00
51099;BME280;37146;48.210;16.234;2022-09-27T12:26:59;97224.13;;;13.05;100.00
51099;BME280;37146;48.210;16.234;2022-09-27T12:29:29;97225.66;;;12.98;100.00
51099;BME280;37146;48.210;16.234;2022-09-27T12:37:17;97239.09;;;13.08;100.00
51099;BME280;37146;48.210;16.234;2022-09-27T12:39:50;97233.41;;;13.01;100.00
51099;BME280;37146;48.210;16.234;2022-09-27T12:42:25;97240.91;;;12.97;100.00
51099;BME280;37146;48.210;16.234;2022-09-27T12:44:53;97237.38;;;13.07;100.00
51099;BME280;37146;48.210;16.234;2022-09-27T12:50:08;97231.31;;;12.95;100.00
51099;BME280;37146;48.210;16.234;2022-09-27T12:52:40;97235.38;;;12.89;100.00
51099;BME280;37146;48.210;16.234;2022-09-27T12:58:33;97239.19;;;12.87;100.00
51099;BME280;37146;48.210;16.234;2022-09-27T13:01:23;97242.56;;;12.79;100.00
51099;BME280;37146;48.210;16.234;2022-09-27T13:07:13;97233.78;;;12.67;100.00
51099;BME280;37146;48.210;16.234;2022-09-27T13:10:53;97230.91;;;12.59;100.00
51099;BME280;37146;48.210;16.234;2022-09-27T13:12:52;97236.56;;;12.56;100.00
51099;BME280;37146;48.210;16.234;2022-09-27T13:15:33;97239.06;;;12.47;100.00
51099;BME280;37146;48.210;16.234;2022-09-27T13:18:00;97238.50;;;12.44;100.00
51099;BME280;37146;48.210;16.234;2022-09-27T13:25:58;97246.94;;;12.39;100.00
51099;BME280;37146;48.210;16.234;2022-09-27T13:30:54;97252.31;;;12.39;100.00
51099;BME280;37146;48.210;16.234;2022-09-27T13:33:28;97250.50;;;12.40;100.00
51099;BME280;37146;48.210;16.234;2022-09-27T13:41:27;97259.38;;;12.40;100.00
51099;BME280;37146;48.210;16.234;2022-09-27T13:46:55;97262.75;;;12.42;100.00
51099;BME280;37146;48.210;16.234;2022-09-27T13:49:39;97270.66;;;12.44;100.00
51099;BME280;37146;48.210;16.234;2022-09-27T13:52:25;97265.88;;;12.47;100.00
51099;BME280;37146;48.210;16.234;2022-09-27T13:54:57;97286.91;;;12.42;100.00
51099;BME280;37146;48.210;16.234;2022-09-27T14:00:04;97273.59;;;12.41;97.99
51099;BME280;37146;48.210;16.234;2022-09-27T14:02:39;97270.63;;;12.34;100.00
51099;BME280;37146;48.210;16.234;2022-09-27T14:05:10;97275.00;;;12.35;96.50
51099;BME280;37146;48.210;16.234;2022-09-27T14:07:43;97271.41;;;12.25;92.92
51099;BME280;37146;48.210;16.234;2022-09-27T14:10:15;97279.00;;;12.19;88.62
51099;BME280;37146;48.210;16.234;2022-09-27T14:12:42;97274.50;;;12.20;92.51
51099;BME280;37146;48.210;16.234;2022-09-27T14:15:21;97285.28;;;12.09;97.50
51099;BME280;37146;48.210;16.234;2022-09-27T14:17:49;97281.22;;;12.14;93.06
51099;BME280;37146;48.210;16.234;2022-09-27T14:21:10;97285.91;;;12.12;93.17
51099;BME280;37146;48.210;16.234;2022-09-27T14:23:38;97299.06;;;12.04;91.34
51099;BME280;37146;48.210;16.234;2022-09-27T14:26:03;97293.84;;;12.02;92.88
51099;BME280;37146;48.210;16.234;2022-09-27T14:28:38;97300.34;;;12.00;94.08
51099;BME280;37146;48.210;16.234;2022-09-27T14:31:15;97294.28;;;11.86;93.89
51099;BME280;37146;48.210;16.234;2022-09-27T14:33:42;97299.84;;;11.95;94.05
51099;BME280;37146;48.210;16.234;2022-09-27T14:36:24;97304.75;;;11.89;98.12
51099;BME280;37146;48.210;16.234;2022-09-27T14:39:23;97308.06;;;11.82;92.59
51099;BME280;37146;48.210;16.234;2022-09-27T14:41:49;97313.19;;;11.85;94.61
51099;BME280;37146;48.210;16.234;2022-09-27T14:44:17;97314.16;;;11.84;94.81
51099;BME280;37146;48.210;16.234;2022-09-27T14:46:43;97315.13;;;11.83;95.66
51099;BME280;37146;48.210;16.234;2022-09-27T14:49:17;97304.53;;;11.81;93.75
51099;BME280;37146;48.210;16.234;2022-09-27T14:51:52;97304.06;;;11.76;93.86
51099;BME280;37146;48.210;16.234;2022-09-27T14:54:20;97296.44;;;11.71;96.62
51099;BME280;37146;48.210;16.234;2022-09-27T14:56:46;97289.97;;;11.74;97.93
51099;BME280;37146;48.210;16.234;2022-09-27T14:59:18;97300.41;;;11.77;100.00
51099;BME280;37146;48.210;16.234;2022-09-27T15:01:51;97302.22;;;11.76;100.00
51099;BME280;37146;48.210;16.234;2022-09-27T15:04:19;97311.19;;;11.87;97.15
51099;BME280;37146;48.210;16.234;2022-09-27T15:06:46;97311.19;;;11.87;99.02
51099;BME280;37146;48.210;16.234;2022-09-27T15:09:13;97324.19;;;11.91;100.00
51099;BME280;37146;48.210;16.234;2022-09-27T15:11:40;97320.69;;;11.91;99.87
51099;BME280;37146;48.210;16.234;2022-09-27T15:14:11;97318.25;;;11.88;99.10
51099;BME280;37146;48.210;16.234;2022-09-27T15:16:38;97330.09;;;11.85;100.00
51099;BME280;37146;48.210;16.234;2022-09-27T15:19:22;97330.34;;;11.82;100.00
51099;BME280;37146;48.210;16.234;2022-09-27T15:21:48;97327.31;;;11.75;100.00
51099;BME280;37146;48.210;16.234;2022-09-27T15:27:24;97334.28;;;11.78;100.00